sensor_id;sensor_type;location;lat;lon;timestamp;P1;durP1;ratioP1;P2;durP2;ratioP2
80732;SDS011;70130;44.534;18.678;2023-05-21T00:02:02;16.85;;;10.88;;
80732;SDS011;70130;44.534;18.678;2023-05-21T00:04:28;14.07;;;10.27;;
80732;SDS011;70130;44.534;18.678;2023-05-21T00:06:58;14.65;;;10.13;;
80732;SDS011;70130;44.534;18.678;2023-05-21T00:09:24;17.33;;;10.30;;
80732;SDS011;70130;44.534;18.678;2023-05-21T00:11:49;16.17;;;10.25;;
80732;SDS011;70130;44.534;18.678;2023-05-21T00:14:15;18.63;;;11.02;;
80732;SDS011;70130;44.534;18.678;2023-05-21T00:16:41;19.90;;;11.70;;
80732;SDS011;70130;44.534;18.678;2023-05-21T00:19:06;20.10;;;11.55;;
80732;SDS011;70130;44.534;18.678;2023-05-21T00:21:32;17.75;;;11.95;;
80732;SDS011;70130;44.534;18.678;2023-05-21T00:23:57;17.83;;;11.55;;
80732;SDS011;70130;44.534;18.678;2023-05-21T00:26:23;21.33;;;12.18;;
80732;SDS011;70130;44.534;18.678;2023-05-21T00:28:52;17.65;;;11.57;;
80732;SDS011;70130;44.534;18.678;2023-05-21T00:31:19;18.45;;;11.45;;
80732;SDS011;70130;44.534;18.678;2023-05-21T00:33:44;24.10;;;12.18;;
80732;SDS011;70130;44.534;18.678;2023-05-21T00:36:10;25.88;;;12.95;;
80732;SDS011;70130;44.534;18.678;2023-05-21T00:38:42;18.05;;;11.63;;
80732;SDS011;70130;44.534;18.678;2023-05-21T00:41:11;18.15;;;12.30;;
80732;SDS011;70130;44.534;18.678;2023-05-21T00:43:37;21.25;;;12.27;;
80732;SDS011;70130;44.534;18.678;2023-05-21T00:46:06;20.70;;;12.45;;
80732;SDS011;70130;44.534;18.678;2023-05-21T00:48:32;21.20;;;14.05;;
80732;SDS011;70130;44.534;18.678;2023-05-21T00:50:59;24.17;;;13.90;;
80732;SDS011;70130;44.534;18.678;2023-05-21T00:53:24;18.48;;;11.82;;
80732;SDS011;70130;44.534;18.678;2023-05-21T00:55:51;17.83;;;12.13;;
80732;SDS011;70130;44.534;18.678;2023-05-21T00:58:17;19.52;;;13.23;;
80732;SDS011;70130;44.534;18.678;2023-05-21T01:00:43;20.42;;;12.63;;
80732;SDS011;70130;44.534;18.678;2023-05-21T01:03:09;18.70;;;12.00;;
80732;SDS011;70130;44.534;18.678;2023-05-21T01:05:36;19.52;;;11.98;;
80732;SDS011;70130;44.534;18.678;2023-05-21T01:08:02;18.42;;;11.73;;
80732;SDS011;70130;44.534;18.678;2023-05-21T01:10:28;20.92;;;12.98;;
80732;SDS011;70130;44.534;18.678;2023-05-21T01:12:55;27.02;;;13.45;;
80732;SDS011;70130;44.534;18.678;2023-05-21T01:15:22;20.13;;;12.93;;
80732;SDS011;70130;44.534;18.678;2023-05-21T01:17:49;22.98;;;14.18;;
80732;SDS011;70130;44.534;18.678;2023-05-21T01:20:15;15.45;;;11.65;;
80732;SDS011;70130;44.534;18.678;2023-05-21T01:22:53;21.02;;;12.20;;
80732;SDS011;70130;44.534;18.678;2023-05-21T01:25:23;19.75;;;13.45;;
80732;SDS011;70130;44.534;18.678;2023-05-21T01:27:52;19.60;;;12.77;;
80732;SDS011;70130;44.534;18.678;2023-05-21T01:30:18;20.75;;;13.35;;
80732;SDS011;70130;44.534;18.678;2023-05-21T01:35:34;21.50;;;14.35;;
80732;SDS011;70130;44.534;18.678;2023-05-21T01:40:52;20.02;;;12.02;;
80732;SDS011;70130;44.534;18.678;2023-05-21T01:43:23;17.77;;;11.98;;
80732;SDS011;70130;44.534;18.678;2023-05-21T01:45:53;20.90;;;13.18;;
80732;SDS011;70130;44.534;18.678;2023-05-21T01:48:20;17.58;;;12.13;;
80732;SDS011;70130;44.534;18.678;2023-05-21T01:50:47;18.45;;;11.48;;
80732;SDS011;70130;44.534;18.678;2023-05-21T01:53:14;19.10;;;12.75;;
80732;SDS011;70130;44.534;18.678;2023-05-21T01:55:41;19.85;;;12.80;;
80732;SDS011;70130;44.534;18.678;2023-05-21T01:58:07;21.65;;;12.63;;
80732;SDS011;70130;44.534;18.678;2023-05-21T02:00:34;17.77;;;12.48;;
80732;SDS011;70130;44.534;18.678;2023-05-21T02:02:59;19.38;;;12.35;;
80732;SDS011;70130;44.534;18.678;2023-05-21T02:05:25;19.35;;;13.00;;
80732;SDS011;70130;44.534;18.678;2023-05-21T02:07:51;21.17;;;13.38;;
80732;SDS011;70130;44.534;18.678;2023-05-21T02:10:16;22.20;;;14.13;;
80732;SDS011;70130;44.534;18.678;2023-05-21T02:12:42;22.83;;;14.85;;
80732;SDS011;70130;44.534;18.678;2023-05-21T02:15:08;20.85;;;12.45;;
80732;SDS011;70130;44.534;18.678;2023-05-21T02:17:35;23.33;;;14.07;;
80732;SDS011;70130;44.534;18.678;2023-05-21T02:20:03;23.90;;;13.98;;
80732;SDS011;70130;44.534;18.678;2023-05-21T02:22:42;22.35;;;13.93;;
80732;SDS011;70130;44.534;18.678;2023-05-21T02:27:35;19.67;;;13.85;;
80732;SDS011;70130;44.534;18.678;2023-05-21T02:30:02;23.40;;;13.55;;
80732;SDS011;70130;44.534;18.678;2023-05-21T02:32:29;19.30;;;12.93;;
80732;SDS011;70130;44.534;18.678;2023-05-21T02:34:56;19.73;;;12.18;;
80732;SDS011;70130;44.534;18.678;2023-05-21T02:37:24;22.80;;;13.82;;
80732;SDS011;70130;44.534;18.678;2023-05-21T02:39:55;20.92;;;13.75;;
80732;SDS011;70130;44.534;18.678;2023-05-21T02:42:21;20.75;;;12.52;;
80732;SDS011;70130;44.534;18.678;2023-05-21T02:44:50;19.27;;;12.30;;
80732;SDS011;70130;44.534;18.678;2023-05-21T02:47:18;17.27;;;12.38;;
80732;SDS011;70130;44.534;18.678;2023-05-21T02:49:45;20.50;;;12.20;;
80732;SDS011;70130;44.534;18.678;2023-05-21T02:52:11;16.77;;;11.60;;
80732;SDS011;70130;44.534;18.678;2023-05-21T02:54:38;17.25;;;12.30;;
80732;SDS011;70130;44.534;18.678;2023-05-21T02:57:04;18.30;;;12.43;;
80732;SDS011;70130;44.534;18.678;2023-05-21T02:59:30;21.73;;;13.60;;
80732;SDS011;70130;44.534;18.678;2023-05-21T03:01:56;20.85;;;13.18;;
80732;SDS011;70130;44.534;18.678;2023-05-21T03:04:21;20.20;;;12.13;;
80732;SDS011;70130;44.534;18.678;2023-05-21T03:09:44;22.45;;;13.25;;
80732;SDS011;70130;44.534;18.678;2023-05-21T03:12:09;18.92;;;12.85;;
80732;SDS011;70130;44.534;18.678;2023-05-21T03:14:35;21.58;;;12.75;;
80732;SDS011;70130;44.534;18.678;2023-05-21T03:17:01;17.63;;;12.45;;
80732;SDS011;70130;44.534;18.678;2023-05-21T03:19:31;18.50;;;12.45;;
80732;SDS011;70130;44.534;18.678;2023-05-21T03:22:02;18.20;;;12.35;;
80732;SDS011;70130;44.534;18.678;2023-05-21T03:24:29;17.38;;;12.77;;
80732;SDS011;70130;44.534;18.678;2023-05-21T03:26:56;21.25;;;12.95;;
80732;SDS011;70130;44.534;18.678;2023-05-21T03:29:22;17.25;;;12.35;;
80732;SDS011;70130;44.534;18.678;2023-05-21T03:31:48;19.17;;;13.30;;
80732;SDS011;70130;44.534;18.678;2023-05-21T03:34:16;17.27;;;11.05;;
80732;SDS011;70130;44.534;18.678;2023-05-21T03:36:45;18.83;;;11.82;;
80732;SDS011;70130;44.534;18.678;2023-05-21T03:39:11;17.33;;;11.65;;
80732;SDS011;70130;44.534;18.678;2023-05-21T03:41:37;16.30;;;10.85;;
80732;SDS011;70130;44.534;18.678;2023-05-21T03:44:07;19.85;;;12.43;;
80732;SDS011;70130;44.534;18.678;2023-05-21T03:46:45;17.50;;;12.10;;
80732;SDS011;70130;44.534;18.678;2023-05-21T03:49:20;17.90;;;12.40;;
80732;SDS011;70130;44.534;18.678;2023-05-21T03:51:48;19.48;;;11.98;;
80732;SDS011;70130;44.534;18.678;2023-05-21T03:54:17;21.50;;;12.80;;
80732;SDS011;70130;44.534;18.678;2023-05-21T03:56:43;17.80;;;11.48;;
80732;SDS011;70130;44.534;18.678;2023-05-21T03:59:09;18.52;;;11.85;;
80732;SDS011;70130;44.534;18.678;2023-05-21T04:01:34;14.93;;;10.77;;
80732;SDS011;70130;44.534;18.678;2023-05-21T04:04:01;23.83;;;11.43;;
80732;SDS011;70130;44.534;18.678;2023-05-21T04:06:27;18.83;;;11.85;;
80732;SDS011;70130;44.534;18.678;2023-05-21T04:08:54;20.27;;;12.40;;
80732;SDS011;70130;44.534;18.678;2023-05-21T04:11:19;18.52;;;11.73;;
80732;SDS011;70130;44.534;18.678;2023-05-21T04:13:46;18.35;;;10.98;;
80732;SDS011;70130;44.534;18.678;2023-05-21T04:16:12;19.67;;;11.80;;
80732;SDS011;70130;44.534;18.678;2023-05-21T04:18:39;16.73;;;10.90;;
80732;SDS011;70130;44.534;18.678;2023-05-21T04:21:08;19.83;;;11.80;;
80732;SDS011;70130;44.534;18.678;2023-05-21T04:23:34;16.63;;;11.52;;
80732;SDS011;70130;44.534;18.678;2023-05-21T04:26:06;15.55;;;11.30;;
80732;SDS011;70130;44.534;18.678;2023-05-21T04:28:32;14.45;;;9.80;;
80732;SDS011;70130;44.534;18.678;2023-05-21T04:30:59;16.60;;;10.85;;
80732;SDS011;70130;44.534;18.678;2023-05-21T04:33:25;17.58;;;11.73;;
80732;SDS011;70130;44.534;18.678;2023-05-21T04:35:51;20.25;;;11.38;;
80732;SDS011;70130;44.534;18.678;2023-05-21T04:38:17;16.95;;;10.70;;
80732;SDS011;70130;44.534;18.678;2023-05-21T04:40:53;17.77;;;11.48;;
80732;SDS011;70130;44.534;18.678;2023-05-21T04:43:20;17.65;;;9.68;;
80732;SDS011;70130;44.534;18.678;2023-05-21T04:45:52;15.48;;;10.80;;
80732;SDS011;70130;44.534;18.678;2023-05-21T04:48:21;15.20;;;10.98;;
80732;SDS011;70130;44.534;18.678;2023-05-21T04:50:49;16.67;;;10.65;;
80732;SDS011;70130;44.534;18.678;2023-05-21T04:53:15;18.55;;;10.23;;
80732;SDS011;70130;44.534;18.678;2023-05-21T04:55:41;15.48;;;10.55;;
80732;SDS011;70130;44.534;18.678;2023-05-21T04:58:07;17.73;;;10.65;;
80732;SDS011;70130;44.534;18.678;2023-05-21T05:00:36;16.02;;;10.90;;
80732;SDS011;70130;44.534;18.678;2023-05-21T05:03:03;15.70;;;10.90;;
80732;SDS011;70130;44.534;18.678;2023-05-21T05:05:29;13.25;;;9.48;;
80732;SDS011;70130;44.534;18.678;2023-05-21T05:07:55;15.25;;;10.20;;
80732;SDS011;70130;44.534;18.678;2023-05-21T05:10:22;17.13;;;10.27;;
80732;SDS011;70130;44.534;18.678;2023-05-21T05:12:49;12.57;;;9.20;;
80732;SDS011;70130;44.534;18.678;2023-05-21T05:15:15;13.93;;;10.38;;
80732;SDS011;70130;44.534;18.678;2023-05-21T05:17:41;15.32;;;9.95;;
80732;SDS011;70130;44.534;18.678;2023-05-21T05:20:08;13.68;;;10.35;;
80732;SDS011;70130;44.534;18.678;2023-05-21T05:22:34;14.70;;;10.13;;
80732;SDS011;70130;44.534;18.678;2023-05-21T05:25:00;16.75;;;9.88;;
80732;SDS011;70130;44.534;18.678;2023-05-21T05:27:26;14.80;;;9.68;;
80732;SDS011;70130;44.534;18.678;2023-05-21T05:29:51;14.95;;;10.23;;
80732;SDS011;70130;44.534;18.678;2023-05-21T05:32:17;14.88;;;9.70;;
80732;SDS011;70130;44.534;18.678;2023-05-21T05:34:44;16.85;;;11.00;;
80732;SDS011;70130;44.534;18.678;2023-05-21T05:37:10;18.38;;;10.90;;
80732;SDS011;70130;44.534;18.678;2023-05-21T05:39:36;18.98;;;11.52;;
80732;SDS011;70130;44.534;18.678;2023-05-21T05:42:02;19.70;;;10.82;;
80732;SDS011;70130;44.534;18.678;2023-05-21T05:44:27;18.73;;;11.60;;
80732;SDS011;70130;44.534;18.678;2023-05-21T05:46:53;16.33;;;11.60;;
80732;SDS011;70130;44.534;18.678;2023-05-21T05:49:19;17.45;;;10.93;;
80732;SDS011;70130;44.534;18.678;2023-05-21T05:51:45;19.42;;;11.48;;
80732;SDS011;70130;44.534;18.678;2023-05-21T05:54:10;20.88;;;12.38;;
80732;SDS011;70130;44.534;18.678;2023-05-21T05:56:36;17.00;;;11.88;;
80732;SDS011;70130;44.534;18.678;2023-05-21T05:59:03;16.92;;;9.52;;
80732;SDS011;70130;44.534;18.678;2023-05-21T06:01:31;14.77;;;10.65;;
80732;SDS011;70130;44.534;18.678;2023-05-21T06:03:58;18.30;;;11.20;;
80732;SDS011;70130;44.534;18.678;2023-05-21T06:06:24;15.15;;;9.10;;
80732;SDS011;70130;44.534;18.678;2023-05-21T06:08:50;17.15;;;10.93;;
80732;SDS011;70130;44.534;18.678;2023-05-21T06:11:17;17.20;;;10.65;;
80732;SDS011;70130;44.534;18.678;2023-05-21T06:13:43;17.58;;;11.30;;
80732;SDS011;70130;44.534;18.678;2023-05-21T06:16:09;20.83;;;12.30;;
80732;SDS011;70130;44.534;18.678;2023-05-21T06:18:36;17.25;;;10.05;;
80732;SDS011;70130;44.534;18.678;2023-05-21T06:21:02;17.40;;;11.10;;
80732;SDS011;70130;44.534;18.678;2023-05-21T06:23:28;19.50;;;10.75;;
80732;SDS011;70130;44.534;18.678;2023-05-21T06:25:56;17.52;;;10.85;;
80732;SDS011;70130;44.534;18.678;2023-05-21T06:28:22;18.33;;;10.52;;
80732;SDS011;70130;44.534;18.678;2023-05-21T06:30:48;17.00;;;9.77;;
80732;SDS011;70130;44.534;18.678;2023-05-21T06:33:14;15.32;;;9.10;;
80732;SDS011;70130;44.534;18.678;2023-05-21T06:35:40;16.88;;;9.30;;
80732;SDS011;70130;44.534;18.678;2023-05-21T06:38:08;18.80;;;11.32;;
80732;SDS011;70130;44.534;18.678;2023-05-21T06:40:34;14.57;;;10.63;;
80732;SDS011;70130;44.534;18.678;2023-05-21T06:43:01;15.60;;;9.65;;
80732;SDS011;70130;44.534;18.678;2023-05-21T06:45:37;15.05;;;10.02;;
80732;SDS011;70130;44.534;18.678;2023-05-21T06:48:16;20.05;;;10.95;;
80732;SDS011;70130;44.534;18.678;2023-05-21T06:50:42;18.20;;;11.55;;
80732;SDS011;70130;44.534;18.678;2023-05-21T06:53:08;13.85;;;9.90;;
80732;SDS011;70130;44.534;18.678;2023-05-21T06:55:34;18.42;;;10.10;;
80732;SDS011;70130;44.534;18.678;2023-05-21T06:58:16;12.75;;;8.90;;
80732;SDS011;70130;44.534;18.678;2023-05-21T07:00:42;15.60;;;9.80;;
80732;SDS011;70130;44.534;18.678;2023-05-21T07:03:08;11.68;;;8.98;;
80732;SDS011;70130;44.534;18.678;2023-05-21T07:05:34;18.52;;;10.27;;
80732;SDS011;70130;44.534;18.678;2023-05-21T07:08:00;16.38;;;8.57;;
80732;SDS011;70130;44.534;18.678;2023-05-21T07:10:26;11.50;;;7.32;;
80732;SDS011;70130;44.534;18.678;2023-05-21T07:12:51;12.05;;;7.55;;
80732;SDS011;70130;44.534;18.678;2023-05-21T07:15:18;11.52;;;7.50;;
80732;SDS011;70130;44.534;18.678;2023-05-21T07:17:44;10.57;;;7.57;;
80732;SDS011;70130;44.534;18.678;2023-05-21T07:20:10;11.10;;;7.53;;
80732;SDS011;70130;44.534;18.678;2023-05-21T07:22:39;13.00;;;7.88;;
80732;SDS011;70130;44.534;18.678;2023-05-21T07:25:10;13.43;;;8.38;;
80732;SDS011;70130;44.534;18.678;2023-05-21T07:27:35;11.48;;;7.38;;
80732;SDS011;70130;44.534;18.678;2023-05-21T07:30:02;9.85;;;7.63;;
80732;SDS011;70130;44.534;18.678;2023-05-21T07:32:28;10.70;;;7.30;;
80732;SDS011;70130;44.534;18.678;2023-05-21T07:34:54;10.50;;;7.13;;
80732;SDS011;70130;44.534;18.678;2023-05-21T07:37:23;13.70;;;8.68;;
80732;SDS011;70130;44.534;18.678;2023-05-21T07:39:49;14.20;;;8.18;;
80732;SDS011;70130;44.534;18.678;2023-05-21T07:42:15;12.75;;;7.93;;
80732;SDS011;70130;44.534;18.678;2023-05-21T07:44:41;8.93;;;6.88;;
80732;SDS011;70130;44.534;18.678;2023-05-21T07:47:07;9.27;;;7.28;;
80732;SDS011;70130;44.534;18.678;2023-05-21T07:49:33;13.43;;;7.15;;
80732;SDS011;70130;44.534;18.678;2023-05-21T07:51:59;10.48;;;7.38;;
80732;SDS011;70130;44.534;18.678;2023-05-21T07:54:28;9.77;;;7.13;;
80732;SDS011;70130;44.534;18.678;2023-05-21T07:56:55;12.90;;;7.70;;
80732;SDS011;70130;44.534;18.678;2023-05-21T07:59:39;12.85;;;6.65;;
80732;SDS011;70130;44.534;18.678;2023-05-21T08:02:06;9.30;;;5.70;;
80732;SDS011;70130;44.534;18.678;2023-05-21T08:04:32;7.65;;;5.78;;
80732;SDS011;70130;44.534;18.678;2023-05-21T08:07:00;9.30;;;5.70;;
80732;SDS011;70130;44.534;18.678;2023-05-21T08:09:26;9.45;;;5.53;;
80732;SDS011;70130;44.534;18.678;2023-05-21T08:11:53;8.68;;;5.45;;
80732;SDS011;70130;44.534;18.678;2023-05-21T08:14:20;10.63;;;6.70;;
80732;SDS011;70130;44.534;18.678;2023-05-21T08:16:46;10.15;;;6.00;;
80732;SDS011;70130;44.534;18.678;2023-05-21T08:19:11;7.50;;;5.25;;
80732;SDS011;70130;44.534;18.678;2023-05-21T08:21:37;7.70;;;5.80;;
80732;SDS011;70130;44.534;18.678;2023-05-21T08:24:03;9.57;;;5.55;;
80732;SDS011;70130;44.534;18.678;2023-05-21T08:26:28;9.60;;;5.90;;
80732;SDS011;70130;44.534;18.678;2023-05-21T08:28:55;5.50;;;4.78;;
80732;SDS011;70130;44.534;18.678;2023-05-21T08:31:20;9.27;;;6.28;;
80732;SDS011;70130;44.534;18.678;2023-05-21T08:33:49;11.23;;;6.80;;
80732;SDS011;70130;44.534;18.678;2023-05-21T08:36:23;7.78;;;5.75;;
80732;SDS011;70130;44.534;18.678;2023-05-21T08:38:54;8.10;;;5.53;;
80732;SDS011;70130;44.534;18.678;2023-05-21T08:41:30;7.88;;;5.53;;
80732;SDS011;70130;44.534;18.678;2023-05-21T08:44:00;11.73;;;5.82;;
80732;SDS011;70130;44.534;18.678;2023-05-21T08:46:31;10.43;;;5.63;;
80732;SDS011;70130;44.534;18.678;2023-05-21T08:49:01;7.85;;;5.43;;
80732;SDS011;70130;44.534;18.678;2023-05-21T08:51:28;7.90;;;5.47;;
80732;SDS011;70130;44.534;18.678;2023-05-21T08:53:55;9.70;;;5.50;;
80732;SDS011;70130;44.534;18.678;2023-05-21T08:56:22;9.60;;;6.63;;
80732;SDS011;70130;44.534;18.678;2023-05-21T08:58:53;9.70;;;5.25;;
80732;SDS011;70130;44.534;18.678;2023-05-21T09:01:24;6.95;;;5.03;;
80732;SDS011;70130;44.534;18.678;2023-05-21T09:03:56;8.55;;;5.65;;
80732;SDS011;70130;44.534;18.678;2023-05-21T09:06:24;8.20;;;5.55;;
80732;SDS011;70130;44.534;18.678;2023-05-21T09:08:54;9.68;;;5.50;;
80732;SDS011;70130;44.534;18.678;2023-05-21T09:11:34;8.48;;;5.55;;
80732;SDS011;70130;44.534;18.678;2023-05-21T09:14:00;8.70;;;5.25;;
80732;SDS011;70130;44.534;18.678;2023-05-21T09:16:55;9.20;;;5.28;;
80732;SDS011;70130;44.534;18.678;2023-05-21T09:19:21;9.70;;;5.15;;
80732;SDS011;70130;44.534;18.678;2023-05-21T09:21:47;8.55;;;5.05;;
80732;SDS011;70130;44.534;18.678;2023-05-21T09:24:20;7.97;;;4.70;;
80732;SDS011;70130;44.534;18.678;2023-05-21T09:26:49;8.27;;;5.00;;
80732;SDS011;70130;44.534;18.678;2023-05-21T09:29:15;8.23;;;4.82;;
80732;SDS011;70130;44.534;18.678;2023-05-21T09:31:44;8.30;;;4.70;;
80732;SDS011;70130;44.534;18.678;2023-05-21T09:34:11;10.93;;;4.40;;
80732;SDS011;70130;44.534;18.678;2023-05-21T09:36:39;9.73;;;4.85;;
80732;SDS011;70130;44.534;18.678;2023-05-21T09:39:05;6.47;;;4.72;;
80732;SDS011;70130;44.534;18.678;2023-05-21T09:41:31;8.05;;;4.93;;
80732;SDS011;70130;44.534;18.678;2023-05-21T09:43:59;7.43;;;4.80;;
80732;SDS011;70130;44.534;18.678;2023-05-21T09:46:26;6.32;;;4.50;;
80732;SDS011;70130;44.534;18.678;2023-05-21T09:48:52;7.57;;;4.80;;
80732;SDS011;70130;44.534;18.678;2023-05-21T09:51:19;6.75;;;4.90;;
80732;SDS011;70130;44.534;18.678;2023-05-21T09:56:24;8.88;;;5.72;;
80732;SDS011;70130;44.534;18.678;2023-05-21T09:58:53;10.85;;;5.43;;
80732;SDS011;70130;44.534;18.678;2023-05-21T10:01:20;8.45;;;5.43;;
80732;SDS011;70130;44.534;18.678;2023-05-21T10:03:54;7.65;;;5.57;;
80732;SDS011;70130;44.534;18.678;2023-05-21T10:06:26;5.80;;;4.60;;
80732;SDS011;70130;44.534;18.678;2023-05-21T10:08:54;7.05;;;5.28;;
80732;SDS011;70130;44.534;18.678;2023-05-21T10:11:21;8.13;;;5.20;;
80732;SDS011;70130;44.534;18.678;2023-05-21T10:13:52;9.68;;;5.40;;
80732;SDS011;70130;44.534;18.678;2023-05-21T10:16:22;8.00;;;5.28;;
80732;SDS011;70130;44.534;18.678;2023-05-21T10:18:48;9.40;;;5.78;;
80732;SDS011;70130;44.534;18.678;2023-05-21T10:21:14;8.38;;;5.53;;
80732;SDS011;70130;44.534;18.678;2023-05-21T10:23:41;8.05;;;5.40;;
80732;SDS011;70130;44.534;18.678;2023-05-21T10:26:07;10.15;;;5.20;;
80732;SDS011;70130;44.534;18.678;2023-05-21T10:28:33;6.45;;;4.70;;
80732;SDS011;70130;44.534;18.678;2023-05-21T10:31:00;9.27;;;6.00;;
80732;SDS011;70130;44.534;18.678;2023-05-21T10:33:27;9.18;;;5.70;;
80732;SDS011;70130;44.534;18.678;2023-05-21T10:35:53;7.80;;;5.55;;
80732;SDS011;70130;44.534;18.678;2023-05-21T10:38:22;6.65;;;5.75;;
80732;SDS011;70130;44.534;18.678;2023-05-21T10:40:49;6.53;;;5.28;;
80732;SDS011;70130;44.534;18.678;2023-05-21T10:46:04;8.13;;;4.95;;
80732;SDS011;70130;44.534;18.678;2023-05-21T10:59:09;9.18;;;5.82;;
80732;SDS011;70130;44.534;18.678;2023-05-21T11:01:47;8.70;;;5.65;;
80732;SDS011;70130;44.534;18.678;2023-05-21T11:04:27;10.00;;;5.93;;
80732;SDS011;70130;44.534;18.678;2023-05-21T11:06:53;11.63;;;5.60;;
80732;SDS011;70130;44.534;18.678;2023-05-21T11:09:20;9.32;;;5.68;;
80732;SDS011;70130;44.534;18.678;2023-05-21T11:11:49;12.05;;;5.18;;
80732;SDS011;70130;44.534;18.678;2023-05-21T11:17:02;9.23;;;5.45;;
80732;SDS011;70130;44.534;18.678;2023-05-21T11:19:34;8.52;;;5.93;;
80732;SDS011;70130;44.534;18.678;2023-05-21T11:22:34;13.07;;;6.07;;
80732;SDS011;70130;44.534;18.678;2023-05-21T11:24:54;6.32;;;5.18;;
80732;SDS011;70130;44.534;18.678;2023-05-21T11:27:29;9.95;;;4.93;;
80732;SDS011;70130;44.534;18.678;2023-05-21T11:29:56;6.85;;;4.97;;
80732;SDS011;70130;44.534;18.678;2023-05-21T11:32:21;6.82;;;5.50;;
80732;SDS011;70130;44.534;18.678;2023-05-21T11:34:48;5.85;;;4.95;;
80732;SDS011;70130;44.534;18.678;2023-05-21T11:39:44;7.68;;;4.72;;
80732;SDS011;70130;44.534;18.678;2023-05-21T11:42:11;7.20;;;5.00;;
80732;SDS011;70130;44.534;18.678;2023-05-21T11:44:37;7.30;;;5.00;;
80732;SDS011;70130;44.534;18.678;2023-05-21T11:47:04;8.77;;;4.72;;
80732;SDS011;70130;44.534;18.678;2023-05-21T11:49:31;9.48;;;4.78;;
80732;SDS011;70130;44.534;18.678;2023-05-21T11:52:00;9.43;;;6.53;;
80732;SDS011;70130;44.534;18.678;2023-05-21T11:54:27;9.03;;;6.87;;
80732;SDS011;70130;44.534;18.678;2023-05-21T11:57:02;11.02;;;5.40;;
80732;SDS011;70130;44.534;18.678;2023-05-21T11:59:32;10.43;;;4.90;;
80732;SDS011;70130;44.534;18.678;2023-05-21T12:01:58;7.47;;;5.00;;
80732;SDS011;70130;44.534;18.678;2023-05-21T12:04:33;7.85;;;5.70;;
80732;SDS011;70130;44.534;18.678;2023-05-21T12:07:05;8.23;;;5.22;;
80732;SDS011;70130;44.534;18.678;2023-05-21T12:09:41;11.60;;;5.60;;
80732;SDS011;70130;44.534;18.678;2023-05-21T12:12:10;14.18;;;5.82;;
80732;SDS011;70130;44.534;18.678;2023-05-21T12:14:38;12.65;;;6.32;;
80732;SDS011;70130;44.534;18.678;2023-05-21T12:17:04;10.70;;;5.97;;
80732;SDS011;70130;44.534;18.678;2023-05-21T12:19:35;5.93;;;5.10;;
80732;SDS011;70130;44.534;18.678;2023-05-21T12:22:05;9.13;;;5.80;;
80732;SDS011;70130;44.534;18.678;2023-05-21T12:24:31;8.93;;;7.33;;
80732;SDS011;70130;44.534;18.678;2023-05-21T12:26:58;8.73;;;6.65;;
80732;SDS011;70130;44.534;18.678;2023-05-21T12:29:28;8.82;;;7.03;;
80732;SDS011;70130;44.534;18.678;2023-05-21T12:31:58;8.32;;;6.20;;
80732;SDS011;70130;44.534;18.678;2023-05-21T12:37:09;12.32;;;5.80;;
80732;SDS011;70130;44.534;18.678;2023-05-21T12:39:37;10.45;;;7.10;;
80732;SDS011;70130;44.534;18.678;2023-05-21T12:42:03;9.20;;;5.95;;
80732;SDS011;70130;44.534;18.678;2023-05-21T12:44:30;11.45;;;6.60;;
80732;SDS011;70130;44.534;18.678;2023-05-21T12:46:56;9.77;;;6.78;;
80732;SDS011;70130;44.534;18.678;2023-05-21T12:49:30;11.98;;;6.30;;
80732;SDS011;70130;44.534;18.678;2023-05-21T12:52:03;10.18;;;6.53;;
80732;SDS011;70130;44.534;18.678;2023-05-21T12:54:33;9.63;;;6.07;;
80732;SDS011;70130;44.534;18.678;2023-05-21T12:57:12;10.23;;;6.38;;
80732;SDS011;70130;44.534;18.678;2023-05-21T12:59:48;10.85;;;5.95;;
80732;SDS011;70130;44.534;18.678;2023-05-21T13:02:22;13.80;;;6.65;;
80732;SDS011;70130;44.534;18.678;2023-05-21T13:04:56;9.07;;;5.43;;
80732;SDS011;70130;44.534;18.678;2023-05-21T13:07:23;7.32;;;5.85;;
80732;SDS011;70130;44.534;18.678;2023-05-21T13:09:51;9.60;;;6.07;;
80732;SDS011;70130;44.534;18.678;2023-05-21T13:12:20;16.13;;;8.07;;
80732;SDS011;70130;44.534;18.678;2023-05-21T13:14:47;18.10;;;9.57;;
80732;SDS011;70130;44.534;18.678;2023-05-21T13:17:16;23.90;;;11.73;;
80732;SDS011;70130;44.534;18.678;2023-05-21T13:20:04;14.65;;;8.00;;
80732;SDS011;70130;44.534;18.678;2023-05-21T13:22:34;8.82;;;6.13;;
80732;SDS011;70130;44.534;18.678;2023-05-21T13:25:01;7.97;;;5.50;;
80732;SDS011;70130;44.534;18.678;2023-05-21T13:27:27;11.48;;;5.70;;
80732;SDS011;70130;44.534;18.678;2023-05-21T13:29:52;8.73;;;6.38;;
80732;SDS011;70130;44.534;18.678;2023-05-21T13:32:18;9.10;;;6.07;;
80732;SDS011;70130;44.534;18.678;2023-05-21T13:34:44;10.68;;;6.00;;
80732;SDS011;70130;44.534;18.678;2023-05-21T13:37:10;8.40;;;5.63;;
80732;SDS011;70130;44.534;18.678;2023-05-21T13:39:36;8.68;;;5.88;;
80732;SDS011;70130;44.534;18.678;2023-05-21T13:42:01;8.25;;;5.75;;
80732;SDS011;70130;44.534;18.678;2023-05-21T13:44:29;11.25;;;6.32;;
80732;SDS011;70130;44.534;18.678;2023-05-21T13:46:57;10.00;;;5.57;;
80732;SDS011;70130;44.534;18.678;2023-05-21T13:49:23;8.07;;;6.00;;
80732;SDS011;70130;44.534;18.678;2023-05-21T13:51:48;7.97;;;5.63;;
80732;SDS011;70130;44.534;18.678;2023-05-21T13:54:14;12.25;;;6.65;;
80732;SDS011;70130;44.534;18.678;2023-05-21T13:56:40;9.43;;;5.97;;
80732;SDS011;70130;44.534;18.678;2023-05-21T13:59:05;10.55;;;5.97;;
80732;SDS011;70130;44.534;18.678;2023-05-21T14:01:31;9.65;;;6.20;;
80732;SDS011;70130;44.534;18.678;2023-05-21T14:03:56;7.78;;;5.78;;
80732;SDS011;70130;44.534;18.678;2023-05-21T14:06:22;9.40;;;5.57;;
80732;SDS011;70130;44.534;18.678;2023-05-21T14:08:48;8.32;;;5.45;;
80732;SDS011;70130;44.534;18.678;2023-05-21T14:11:14;11.15;;;6.13;;
80732;SDS011;70130;44.534;18.678;2023-05-21T14:13:39;6.78;;;5.50;;
80732;SDS011;70130;44.534;18.678;2023-05-21T14:16:05;11.23;;;6.30;;
80732;SDS011;70130;44.534;18.678;2023-05-21T14:18:31;12.05;;;6.03;;
80732;SDS011;70130;44.534;18.678;2023-05-21T14:20:57;8.68;;;5.70;;
80732;SDS011;70130;44.534;18.678;2023-05-21T14:23:22;10.55;;;6.10;;
80732;SDS011;70130;44.534;18.678;2023-05-21T14:25:48;10.25;;;6.40;;
80732;SDS011;70130;44.534;18.678;2023-05-21T14:28:14;10.25;;;6.95;;
80732;SDS011;70130;44.534;18.678;2023-05-21T14:30:39;9.93;;;6.55;;
80732;SDS011;70130;44.534;18.678;2023-05-21T14:33:05;9.63;;;6.68;;
80732;SDS011;70130;44.534;18.678;2023-05-21T14:35:30;11.68;;;6.80;;
80732;SDS011;70130;44.534;18.678;2023-05-21T14:37:56;12.30;;;6.90;;
80732;SDS011;70130;44.534;18.678;2023-05-21T14:40:21;10.10;;;6.88;;
80732;SDS011;70130;44.534;18.678;2023-05-21T14:42:47;7.85;;;5.88;;
80732;SDS011;70130;44.534;18.678;2023-05-21T14:45:13;13.05;;;6.68;;
80732;SDS011;70130;44.534;18.678;2023-05-21T14:47:38;10.57;;;6.53;;
80732;SDS011;70130;44.534;18.678;2023-05-21T14:50:04;8.75;;;6.28;;
80732;SDS011;70130;44.534;18.678;2023-05-21T14:52:30;7.45;;;6.70;;
80732;SDS011;70130;44.534;18.678;2023-05-21T14:54:56;7.65;;;6.47;;
80732;SDS011;70130;44.534;18.678;2023-05-21T14:57:21;8.80;;;5.88;;
80732;SDS011;70130;44.534;18.678;2023-05-21T14:59:47;10.57;;;6.75;;